sensor_id;sensor_type;location;lat;lon;timestamp;P1;durP1;ratioP1;P2;durP2;ratioP2
3337;SDS011;1682;49.286;10.788;2024-03-06T00:02:38;6.53;;;5.30;;
3337;SDS011;1682;49.286;10.788;2024-03-06T00:05:26;8.60;;;6.63;;
3337;SDS011;1682;49.286;10.788;2024-03-06T00:08:13;19.00;;;6.23;;
3337;SDS011;1682;49.286;10.788;2024-03-06T00:11:01;9.87;;;5.10;;
3337;SDS011;1682;49.286;10.788;2024-03-06T00:13:48;8.70;;;5.60;;
3337;SDS011;1682;49.286;10.788;2024-03-06T00:16:36;4.90;;;4.50;;
3337;SDS011;1682;49.286;10.788;2024-03-06T00:19:25;9.50;;;6.33;;
3337;SDS011;1682;49.286;10.788;2024-03-06T00:22:13;7.10;;;4.60;;
3337;SDS011;1682;49.286;10.788;2024-03-06T00:25:00;8.27;;;6.37;;
3337;SDS011;1682;49.286;10.788;2024-03-06T00:27:48;6.47;;;5.10;;
3337;SDS011;1682;49.286;10.788;2024-03-06T00:30:35;14.60;;;6.23;;
3337;SDS011;1682;49.286;10.788;2024-03-06T00:33:23;7.13;;;5.03;;
3337;SDS011;1682;49.286;10.788;2024-03-06T00:36:12;9.60;;;6.80;;
3337;SDS011;1682;49.286;10.788;2024-03-06T00:38:59;5.03;;;3.40;;
3337;SDS011;1682;49.286;10.788;2024-03-06T00:41:49;9.83;;;5.43;;
3337;SDS011;1682;49.286;10.788;2024-03-06T00:44:37;10.40;;;5.00;;
3337;SDS011;1682;49.286;10.788;2024-03-06T00:47:24;6.80;;;5.23;;
3337;SDS011;1682;49.286;10.788;2024-03-06T00:50:12;8.73;;;5.33;;
3337;SDS011;1682;49.286;10.788;2024-03-06T00:53:03;12.97;;;6.33;;
3337;SDS011;1682;49.286;10.788;2024-03-06T00:55:50;10.00;;;6.00;;
3337;SDS011;1682;49.286;10.788;2024-03-06T00:58:38;7.73;;;5.23;;
3337;SDS011;1682;49.286;10.788;2024-03-06T01:01:25;9.60;;;5.10;;
3337;SDS011;1682;49.286;10.788;2024-03-06T01:04:13;7.23;;;4.80;;
3337;SDS011;1682;49.286;10.788;2024-03-06T01:07:00;10.10;;;7.50;;
3337;SDS011;1682;49.286;10.788;2024-03-06T01:09:49;8.20;;;5.73;;
3337;SDS011;1682;49.286;10.788;2024-03-06T01:12:37;10.40;;;6.57;;
3337;SDS011;1682;49.286;10.788;2024-03-06T01:15:25;6.93;;;5.67;;
3337;SDS011;1682;49.286;10.788;2024-03-06T01:18:12;7.43;;;5.27;;
3337;SDS011;1682;49.286;10.788;2024-03-06T01:21:00;7.37;;;6.37;;
3337;SDS011;1682;49.286;10.788;2024-03-06T01:23:49;6.83;;;6.13;;
3337;SDS011;1682;49.286;10.788;2024-03-06T01:26:37;8.40;;;4.93;;
3337;SDS011;1682;49.286;10.788;2024-03-06T01:29:25;7.53;;;5.60;;
3337;SDS011;1682;49.286;10.788;2024-03-06T01:32:13;9.63;;;5.53;;
3337;SDS011;1682;49.286;10.788;2024-03-06T01:35:01;8.47;;;5.20;;
3337;SDS011;1682;49.286;10.788;2024-03-06T01:37:48;7.80;;;7.07;;
3337;SDS011;1682;49.286;10.788;2024-03-06T01:40:36;10.77;;;7.20;;
3337;SDS011;1682;49.286;10.788;2024-03-06T01:43:25;6.17;;;4.57;;
3337;SDS011;1682;49.286;10.788;2024-03-06T01:46:13;8.07;;;6.50;;
3337;SDS011;1682;49.286;10.788;2024-03-06T01:49:00;8.27;;;5.27;;
3337;SDS011;1682;49.286;10.788;2024-03-06T01:51:48;11.83;;;7.40;;
3337;SDS011;1682;49.286;10.788;2024-03-06T01:54:37;8.33;;;6.90;;
3337;SDS011;1682;49.286;10.788;2024-03-06T01:57:24;6.17;;;5.60;;
3337;SDS011;1682;49.286;10.788;2024-03-06T02:00:13;9.27;;;5.83;;
3337;SDS011;1682;49.286;10.788;2024-03-06T02:03:02;8.70;;;5.90;;
3337;SDS011;1682;49.286;10.788;2024-03-06T02:05:49;9.20;;;7.90;;
3337;SDS011;1682;49.286;10.788;2024-03-06T02:08:37;9.03;;;7.17;;
3337;SDS011;1682;49.286;10.788;2024-03-06T02:11:25;11.87;;;7.10;;
3337;SDS011;1682;49.286;10.788;2024-03-06T02:14:13;8.47;;;6.13;;
3337;SDS011;1682;49.286;10.788;2024-03-06T02:17:02;6.43;;;4.73;;
3337;SDS011;1682;49.286;10.788;2024-03-06T02:19:50;9.70;;;7.27;;
3337;SDS011;1682;49.286;10.788;2024-03-06T02:22:39;6.97;;;5.77;;
3337;SDS011;1682;49.286;10.788;2024-03-06T02:25:26;9.93;;;5.80;;
3337;SDS011;1682;49.286;10.788;2024-03-06T02:28:14;8.20;;;5.90;;
3337;SDS011;1682;49.286;10.788;2024-03-06T02:31:02;7.73;;;5.77;;
3337;SDS011;1682;49.286;10.788;2024-03-06T02:33:52;8.13;;;6.07;;
3337;SDS011;1682;49.286;10.788;2024-03-06T02:36:39;8.33;;;6.00;;
3337;SDS011;1682;49.286;10.788;2024-03-06T02:39:29;9.77;;;6.47;;
3337;SDS011;1682;49.286;10.788;2024-03-06T02:42:16;11.30;;;7.20;;
3337;SDS011;1682;49.286;10.788;2024-03-06T02:45:04;7.70;;;6.20;;
3337;SDS011;1682;49.286;10.788;2024-03-06T02:47:52;9.73;;;6.33;;
3337;SDS011;1682;49.286;10.788;2024-03-06T02:50:39;7.87;;;6.43;;
3337;SDS011;1682;49.286;10.788;2024-03-06T02:53:27;15.80;;;7.20;;
3337;SDS011;1682;49.286;10.788;2024-03-06T02:56:17;9.20;;;6.07;;
3337;SDS011;1682;49.286;10.788;2024-03-06T02:59:04;13.23;;;8.30;;
3337;SDS011;1682;49.286;10.788;2024-03-06T03:01:52;11.73;;;6.83;;
3337;SDS011;1682;49.286;10.788;2024-03-06T03:04:39;10.70;;;6.30;;
3337;SDS011;1682;49.286;10.788;2024-03-06T03:07:27;8.67;;;6.63;;
3337;SDS011;1682;49.286;10.788;2024-03-06T03:10:14;9.70;;;7.30;;
3337;SDS011;1682;49.286;10.788;2024-03-06T03:13:03;10.23;;;7.23;;
3337;SDS011;1682;49.286;10.788;2024-03-06T03:15:51;14.27;;;7.50;;
3337;SDS011;1682;49.286;10.788;2024-03-06T03:18:38;8.43;;;7.47;;
3337;SDS011;1682;49.286;10.788;2024-03-06T03:21:26;11.83;;;9.50;;
3337;SDS011;1682;49.286;10.788;2024-03-06T03:24:14;11.90;;;7.33;;
3337;SDS011;1682;49.286;10.788;2024-03-06T03:27:01;12.43;;;7.57;;
3337;SDS011;1682;49.286;10.788;2024-03-06T03:29:50;11.03;;;7.00;;
3337;SDS011;1682;49.286;10.788;2024-03-06T03:32:38;12.23;;;7.40;;
3337;SDS011;1682;49.286;10.788;2024-03-06T03:35:25;11.37;;;7.00;;
3337;SDS011;1682;49.286;10.788;2024-03-06T03:38:13;12.90;;;7.67;;
3337;SDS011;1682;49.286;10.788;2024-03-06T03:41:02;13.10;;;7.57;;
3337;SDS011;1682;49.286;10.788;2024-03-06T03:43:49;15.30;;;9.30;;
3337;SDS011;1682;49.286;10.788;2024-03-06T03:46:38;13.47;;;8.23;;
3337;SDS011;1682;49.286;10.788;2024-03-06T03:49:26;10.67;;;6.80;;
3337;SDS011;1682;49.286;10.788;2024-03-06T03:52:13;10.87;;;7.20;;
3337;SDS011;1682;49.286;10.788;2024-03-06T03:55:01;11.77;;;7.70;;
3337;SDS011;1682;49.286;10.788;2024-03-06T03:57:49;13.77;;;8.13;;
3337;SDS011;1682;49.286;10.788;2024-03-06T04:00:36;12.10;;;8.87;;
3337;SDS011;1682;49.286;10.788;2024-03-06T04:03:25;12.77;;;7.90;;
3337;SDS011;1682;49.286;10.788;2024-03-06T04:06:12;15.40;;;9.03;;
3337;SDS011;1682;49.286;10.788;2024-03-06T04:09:09;17.50;;;10.60;;
3337;SDS011;1682;49.286;10.788;2024-03-06T04:11:56;9.80;;;6.70;;
3337;SDS011;1682;49.286;10.788;2024-03-06T04:14:44;15.50;;;9.37;;
3337;SDS011;1682;49.286;10.788;2024-03-06T04:17:31;12.33;;;8.07;;
3337;SDS011;1682;49.286;10.788;2024-03-06T04:20:20;13.17;;;8.10;;
3337;SDS011;1682;49.286;10.788;2024-03-06T04:23:08;12.10;;;7.00;;
3337;SDS011;1682;49.286;10.788;2024-03-06T04:25:55;17.77;;;10.73;;
3337;SDS011;1682;49.286;10.788;2024-03-06T04:28:43;14.13;;;10.07;;
3337;SDS011;1682;49.286;10.788;2024-03-06T04:31:30;11.37;;;8.13;;
3337;SDS011;1682;49.286;10.788;2024-03-06T04:34:18;19.20;;;9.50;;
3337;SDS011;1682;49.286;10.788;2024-03-06T04:37:07;16.80;;;9.57;;
3337;SDS011;1682;49.286;10.788;2024-03-06T04:39:54;16.37;;;9.30;;
3337;SDS011;1682;49.286;10.788;2024-03-06T04:42:42;16.90;;;9.10;;
3337;SDS011;1682;49.286;10.788;2024-03-06T04:45:30;16.63;;;9.07;;
3337;SDS011;1682;49.286;10.788;2024-03-06T04:48:17;13.30;;;8.20;;
3337;SDS011;1682;49.286;10.788;2024-03-06T04:51:04;15.10;;;9.60;;
3337;SDS011;1682;49.286;10.788;2024-03-06T04:53:53;11.87;;;8.17;;
3337;SDS011;1682;49.286;10.788;2024-03-06T04:56:41;18.00;;;8.77;;
3337;SDS011;1682;49.286;10.788;2024-03-06T04:59:28;15.53;;;9.53;;
3337;SDS011;1682;49.286;10.788;2024-03-06T05:02:16;15.80;;;10.73;;
3337;SDS011;1682;49.286;10.788;2024-03-06T05:05:03;20.73;;;11.03;;
3337;SDS011;1682;49.286;10.788;2024-03-06T05:07:51;18.03;;;9.57;;
3337;SDS011;1682;49.286;10.788;2024-03-06T05:10:40;11.93;;;10.60;;
3337;SDS011;1682;49.286;10.788;2024-03-06T05:13:27;15.33;;;8.50;;
3337;SDS011;1682;49.286;10.788;2024-03-06T05:16:15;20.50;;;10.63;;
3337;SDS011;1682;49.286;10.788;2024-03-06T05:19:03;15.50;;;10.27;;
3337;SDS011;1682;49.286;10.788;2024-03-06T05:21:51;18.33;;;10.67;;
3337;SDS011;1682;49.286;10.788;2024-03-06T05:24:39;25.57;;;11.50;;
3337;SDS011;1682;49.286;10.788;2024-03-06T05:27:29;16.37;;;9.87;;
3337;SDS011;1682;49.286;10.788;2024-03-06T05:30:17;20.17;;;11.20;;
3337;SDS011;1682;49.286;10.788;2024-03-06T05:33:04;17.53;;;10.70;;
3337;SDS011;1682;49.286;10.788;2024-03-06T05:35:52;23.17;;;11.73;;
3337;SDS011;1682;49.286;10.788;2024-03-06T05:38:39;17.10;;;10.30;;
3337;SDS011;1682;49.286;10.788;2024-03-06T05:41:28;18.77;;;11.10;;
3337;SDS011;1682;49.286;10.788;2024-03-06T05:44:17;21.97;;;11.70;;
3337;SDS011;1682;49.286;10.788;2024-03-06T05:47:04;23.60;;;11.40;;
3337;SDS011;1682;49.286;10.788;2024-03-06T05:49:53;22.80;;;10.93;;
3337;SDS011;1682;49.286;10.788;2024-03-06T05:52:40;23.33;;;12.97;;
3337;SDS011;1682;49.286;10.788;2024-03-06T05:55:27;22.07;;;11.50;;
3337;SDS011;1682;49.286;10.788;2024-03-06T05:58:15;25.73;;;11.60;;
3337;SDS011;1682;49.286;10.788;2024-03-06T06:01:04;20.40;;;11.83;;
3337;SDS011;1682;49.286;10.788;2024-03-06T06:03:52;18.43;;;8.90;;
3337;SDS011;1682;49.286;10.788;2024-03-06T06:06:39;16.73;;;12.27;;
3337;SDS011;1682;49.286;10.788;2024-03-06T06:09:27;24.57;;;14.10;;
3337;SDS011;1682;49.286;10.788;2024-03-06T06:12:14;22.93;;;10.73;;
3337;SDS011;1682;49.286;10.788;2024-03-06T06:15:02;28.63;;;12.77;;
3337;SDS011;1682;49.286;10.788;2024-03-06T06:17:51;21.20;;;9.73;;
3337;SDS011;1682;49.286;10.788;2024-03-06T06:20:40;22.10;;;10.97;;
3337;SDS011;1682;49.286;10.788;2024-03-06T06:23:28;20.47;;;12.10;;
3337;SDS011;1682;49.286;10.788;2024-03-06T06:26:15;23.00;;;11.47;;
3337;SDS011;1682;49.286;10.788;2024-03-06T06:29:03;21.97;;;9.73;;
3337;SDS011;1682;49.286;10.788;2024-03-06T06:31:50;17.93;;;9.73;;
3337;SDS011;1682;49.286;10.788;2024-03-06T06:34:39;21.07;;;11.20;;
3337;SDS011;1682;49.286;10.788;2024-03-06T06:37:26;23.57;;;11.30;;
3337;SDS011;1682;49.286;10.788;2024-03-06T06:40:14;14.20;;;10.07;;
3337;SDS011;1682;49.286;10.788;2024-03-06T06:43:01;26.20;;;15.77;;
3337;SDS011;1682;49.286;10.788;2024-03-06T06:45:49;32.13;;;13.90;;
3337;SDS011;1682;49.286;10.788;2024-03-06T06:48:37;23.23;;;10.87;;
3337;SDS011;1682;49.286;10.788;2024-03-06T06:51:26;20.47;;;11.07;;
3337;SDS011;1682;49.286;10.788;2024-03-06T06:54:13;34.83;;;11.33;;
3337;SDS011;1682;49.286;10.788;2024-03-06T06:57:01;24.13;;;10.50;;
3337;SDS011;1682;49.286;10.788;2024-03-06T06:59:50;28.13;;;12.30;;
3337;SDS011;1682;49.286;10.788;2024-03-06T07:02:37;23.10;;;11.47;;
3337;SDS011;1682;49.286;10.788;2024-03-06T07:05:25;27.20;;;12.27;;
3337;SDS011;1682;49.286;10.788;2024-03-06T07:08:14;28.43;;;13.97;;
3337;SDS011;1682;49.286;10.788;2024-03-06T07:11:02;22.97;;;13.40;;
3337;SDS011;1682;49.286;10.788;2024-03-06T07:13:50;24.47;;;13.10;;
3337;SDS011;1682;49.286;10.788;2024-03-06T07:16:41;26.00;;;13.10;;
3337;SDS011;1682;49.286;10.788;2024-03-06T07:19:29;20.67;;;12.60;;
3337;SDS011;1682;49.286;10.788;2024-03-06T07:22:17;24.87;;;14.00;;
3337;SDS011;1682;49.286;10.788;2024-03-06T07:25:06;25.17;;;11.83;;
3337;SDS011;1682;49.286;10.788;2024-03-06T07:27:55;25.93;;;13.70;;
3337;SDS011;1682;49.286;10.788;2024-03-06T07:30:42;18.83;;;10.80;;
3337;SDS011;1682;49.286;10.788;2024-03-06T07:33:31;19.17;;;12.07;;
3337;SDS011;1682;49.286;10.788;2024-03-06T07:36:23;27.50;;;12.30;;
3337;SDS011;1682;49.286;10.788;2024-03-06T07:39:10;22.93;;;12.47;;
3337;SDS011;1682;49.286;10.788;2024-03-06T07:41:59;24.90;;;13.10;;
3337;SDS011;1682;49.286;10.788;2024-03-06T07:44:48;26.60;;;12.00;;
3337;SDS011;1682;49.286;10.788;2024-03-06T07:47:35;22.73;;;13.20;;
3337;SDS011;1682;49.286;10.788;2024-03-06T07:50:23;27.87;;;13.77;;
3337;SDS011;1682;49.286;10.788;2024-03-06T07:53:11;21.10;;;12.40;;
3337;SDS011;1682;49.286;10.788;2024-03-06T07:55:58;22.93;;;11.27;;
3337;SDS011;1682;49.286;10.788;2024-03-06T07:58:47;29.40;;;14.03;;
3337;SDS011;1682;49.286;10.788;2024-03-06T08:01:35;25.20;;;13.40;;
3337;SDS011;1682;49.286;10.788;2024-03-06T08:04:22;20.17;;;11.90;;
3337;SDS011;1682;49.286;10.788;2024-03-06T08:07:10;26.53;;;14.33;;
3337;SDS011;1682;49.286;10.788;2024-03-06T08:09:57;24.17;;;12.90;;
3337;SDS011;1682;49.286;10.788;2024-03-06T08:12:45;28.13;;;12.60;;
3337;SDS011;1682;49.286;10.788;2024-03-06T08:15:34;29.60;;;13.37;;
3337;SDS011;1682;49.286;10.788;2024-03-06T08:18:22;24.00;;;14.10;;
3337;SDS011;1682;49.286;10.788;2024-03-06T08:21:10;20.53;;;12.70;;
3337;SDS011;1682;49.286;10.788;2024-03-06T08:23:57;19.40;;;11.50;;
3337;SDS011;1682;49.286;10.788;2024-03-06T08:26:45;23.70;;;11.30;;
3337;SDS011;1682;49.286;10.788;2024-03-06T08:29:33;19.23;;;11.40;;
3337;SDS011;1682;49.286;10.788;2024-03-06T08:32:22;21.47;;;11.00;;
3337;SDS011;1682;49.286;10.788;2024-03-06T08:35:10;25.23;;;12.10;;
3337;SDS011;1682;49.286;10.788;2024-03-06T08:37:58;27.00;;;13.63;;
3337;SDS011;1682;49.286;10.788;2024-03-06T08:40:45;20.10;;;11.27;;
3337;SDS011;1682;49.286;10.788;2024-03-06T08:43:34;17.53;;;9.60;;
3337;SDS011;1682;49.286;10.788;2024-03-06T08:46:21;21.03;;;12.07;;
3337;SDS011;1682;49.286;10.788;2024-03-06T08:49:10;23.50;;;10.93;;
3337;SDS011;1682;49.286;10.788;2024-03-06T08:51:58;29.13;;;13.60;;
3337;SDS011;1682;49.286;10.788;2024-03-06T08:54:45;23.23;;;11.83;;
3337;SDS011;1682;49.286;10.788;2024-03-06T08:57:33;21.63;;;13.10;;
3337;SDS011;1682;49.286;10.788;2024-03-06T09:00:20;19.73;;;12.33;;
3337;SDS011;1682;49.286;10.788;2024-03-06T09:03:08;19.07;;;10.80;;
3337;SDS011;1682;49.286;10.788;2024-03-06T09:05:57;18.50;;;11.60;;
3337;SDS011;1682;49.286;10.788;2024-03-06T09:08:45;21.33;;;13.43;;
3337;SDS011;1682;49.286;10.788;2024-03-06T09:11:34;16.37;;;9.40;;
3337;SDS011;1682;49.286;10.788;2024-03-06T09:14:21;24.50;;;12.20;;
3337;SDS011;1682;49.286;10.788;2024-03-06T09:17:09;17.10;;;10.60;;
3337;SDS011;1682;49.286;10.788;2024-03-06T09:19:58;16.23;;;9.97;;
3337;SDS011;1682;49.286;10.788;2024-03-06T09:22:56;19.03;;;11.50;;
3337;SDS011;1682;49.286;10.788;2024-03-06T09:25:44;18.63;;;10.43;;
3337;SDS011;1682;49.286;10.788;2024-03-06T09:28:33;24.27;;;12.00;;
3337;SDS011;1682;49.286;10.788;2024-03-06T09:31:21;20.63;;;12.80;;
3337;SDS011;1682;49.286;10.788;2024-03-06T09:34:08;23.47;;;12.20;;
3337;SDS011;1682;49.286;10.788;2024-03-06T09:36:57;17.73;;;10.57;;
3337;SDS011;1682;49.286;10.788;2024-03-06T09:39:46;23.60;;;10.90;;
3337;SDS011;1682;49.286;10.788;2024-03-06T09:42:34;20.70;;;11.17;;
3337;SDS011;1682;49.286;10.788;2024-03-06T09:45:21;17.47;;;9.07;;
3337;SDS011;1682;49.286;10.788;2024-03-06T09:48:09;19.30;;;10.47;;
3337;SDS011;1682;49.286;10.788;2024-03-06T09:50:57;21.20;;;10.87;;
3337;SDS011;1682;49.286;10.788;2024-03-06T09:53:48;19.20;;;10.33;;
3337;SDS011;1682;49.286;10.788;2024-03-06T09:56:38;21.87;;;10.20;;
3337;SDS011;1682;49.286;10.788;2024-03-06T09:59:25;20.63;;;9.60;;
3337;SDS011;1682;49.286;10.788;2024-03-06T10:02:18;20.63;;;9.50;;
3337;SDS011;1682;49.286;10.788;2024-03-06T10:05:06;16.43;;;7.70;;
3337;SDS011;1682;49.286;10.788;2024-03-06T10:08:07;14.20;;;8.77;;
3337;SDS011;1682;49.286;10.788;2024-03-06T10:10:54;13.90;;;8.50;;
3337;SDS011;1682;49.286;10.788;2024-03-06T10:13:44;17.43;;;9.67;;
3337;SDS011;1682;49.286;10.788;2024-03-06T10:16:32;13.17;;;9.03;;
3337;SDS011;1682;49.286;10.788;2024-03-06T10:19:22;24.53;;;10.20;;
3337;SDS011;1682;49.286;10.788;2024-03-06T10:22:09;19.27;;;10.20;;
3337;SDS011;1682;49.286;10.788;2024-03-06T10:24:57;21.80;;;11.83;;
3337;SDS011;1682;49.286;10.788;2024-03-06T10:27:44;14.90;;;9.90;;
3337;SDS011;1682;49.286;10.788;2024-03-06T10:30:33;16.43;;;9.00;;
3337;SDS011;1682;49.286;10.788;2024-03-06T10:33:21;21.40;;;12.03;;
3337;SDS011;1682;49.286;10.788;2024-03-06T10:36:09;14.73;;;9.40;;
3337;SDS011;1682;49.286;10.788;2024-03-06T10:38:58;14.80;;;9.63;;
3337;SDS011;1682;49.286;10.788;2024-03-06T10:41:51;13.83;;;8.43;;
3337;SDS011;1682;49.286;10.788;2024-03-06T10:44:41;14.27;;;9.20;;
3337;SDS011;1682;49.286;10.788;2024-03-06T10:47:31;19.60;;;10.80;;
3337;SDS011;1682;49.286;10.788;2024-03-06T10:50:19;28.03;;;11.80;;
3337;SDS011;1682;49.286;10.788;2024-03-06T10:53:07;16.50;;;10.27;;
3337;SDS011;1682;49.286;10.788;2024-03-06T10:55:56;18.43;;;9.73;;
3337;SDS011;1682;49.286;10.788;2024-03-06T10:58:44;16.23;;;10.53;;
3337;SDS011;1682;49.286;10.788;2024-03-06T11:01:32;15.07;;;9.47;;
3337;SDS011;1682;49.286;10.788;2024-03-06T11:04:21;13.97;;;8.23;;
3337;SDS011;1682;49.286;10.788;2024-03-06T11:07:09;24.77;;;9.10;;
3337;SDS011;1682;49.286;10.788;2024-03-06T11:09:58;13.43;;;8.47;;
3337;SDS011;1682;49.286;10.788;2024-03-06T11:12:46;17.90;;;10.40;;
3337;SDS011;1682;49.286;10.788;2024-03-06T11:15:34;17.97;;;9.30;;
3337;SDS011;1682;49.286;10.788;2024-03-06T11:18:41;25.00;;;10.40;;
3337;SDS011;1682;49.286;10.788;2024-03-06T11:21:31;16.17;;;9.17;;
3337;SDS011;1682;49.286;10.788;2024-03-06T11:24:19;14.70;;;10.10;;
3337;SDS011;1682;49.286;10.788;2024-03-06T11:27:07;17.40;;;9.37;;
3337;SDS011;1682;49.286;10.788;2024-03-06T11:30:03;18.43;;;9.47;;
3337;SDS011;1682;49.286;10.788;2024-03-06T11:32:59;20.17;;;10.90;;
3337;SDS011;1682;49.286;10.788;2024-03-06T11:38:55;20.60;;;12.33;;
3337;SDS011;1682;49.286;10.788;2024-03-06T11:41:46;22.03;;;10.67;;
3337;SDS011;1682;49.286;10.788;2024-03-06T11:44:35;18.40;;;10.33;;
3337;SDS011;1682;49.286;10.788;2024-03-06T11:47:23;13.33;;;8.73;;
3337;SDS011;1682;49.286;10.788;2024-03-06T11:50:10;16.90;;;10.20;;
3337;SDS011;1682;49.286;10.788;2024-03-06T11:52:58;13.40;;;8.70;;
3337;SDS011;1682;49.286;10.788;2024-03-06T11:55:47;14.63;;;9.70;;
3337;SDS011;1682;49.286;10.788;2024-03-06T11:58:34;27.90;;;12.70;;
3337;SDS011;1682;49.286;10.788;2024-03-06T12:01:22;16.90;;;10.27;;
3337;SDS011;1682;49.286;10.788;2024-03-06T12:04:09;17.93;;;10.97;;
3337;SDS011;1682;49.286;10.788;2024-03-06T12:06:58;25.37;;;11.77;;
3337;SDS011;1682;49.286;10.788;2024-03-06T12:09:45;23.87;;;12.13;;
3337;SDS011;1682;49.286;10.788;2024-03-06T12:12:34;21.73;;;10.30;;
3337;SDS011;1682;49.286;10.788;2024-03-06T12:15:22;17.83;;;9.30;;
3337;SDS011;1682;49.286;10.788;2024-03-06T12:18:10;13.93;;;8.73;;
3337;SDS011;1682;49.286;10.788;2024-03-06T12:20:59;21.60;;;9.90;;
3337;SDS011;1682;49.286;10.788;2024-03-06T12:23:48;17.00;;;9.60;;
3337;SDS011;1682;49.286;10.788;2024-03-06T12:26:36;16.17;;;9.33;;
3337;SDS011;1682;49.286;10.788;2024-03-06T12:29:27;20.40;;;9.30;;
3337;SDS011;1682;49.286;10.788;2024-03-06T12:32:15;21.00;;;11.30;;
3337;SDS011;1682;49.286;10.788;2024-03-06T12:35:04;16.50;;;10.10;;
3337;SDS011;1682;49.286;10.788;2024-03-06T12:37:51;19.77;;;10.07;;
3337;SDS011;1682;49.286;10.788;2024-03-06T12:40:39;20.33;;;9.53;;
3337;SDS011;1682;49.286;10.788;2024-03-06T12:43:26;18.03;;;10.00;;
3337;SDS011;1682;49.286;10.788;2024-03-06T12:46:16;20.50;;;9.23;;
3337;SDS011;1682;49.286;10.788;2024-03-06T12:49:04;15.67;;;8.53;;
3337;SDS011;1682;49.286;10.788;2024-03-06T12:51:52;15.27;;;8.30;;
3337;SDS011;1682;49.286;10.788;2024-03-06T12:54:39;15.53;;;8.10;;
3337;SDS011;1682;49.286;10.788;2024-03-06T12:57:28;15.47;;;9.73;;
3337;SDS011;1682;49.286;10.788;2024-03-06T13:00:16;19.13;;;9.33;;
3337;SDS011;1682;49.286;10.788;2024-03-06T13:03:05;18.57;;;9.60;;
3337;SDS011;1682;49.286;10.788;2024-03-06T13:05:53;15.90;;;9.27;;
3337;SDS011;1682;49.286;10.788;2024-03-06T13:08:41;20.17;;;8.97;;
3337;SDS011;1682;49.286;10.788;2024-03-06T13:11:28;13.47;;;7.23;;
3337;SDS011;1682;49.286;10.788;2024-03-06T13:14:17;14.93;;;8.93;;
3337;SDS011;1682;49.286;10.788;2024-03-06T13:17:04;10.10;;;7.93;;
3337;SDS011;1682;49.286;10.788;2024-03-06T13:19:54;14.10;;;7.47;;
3337;SDS011;1682;49.286;10.788;2024-03-06T13:22:42;17.13;;;8.53;;
3337;SDS011;1682;49.286;10.788;2024-03-06T13:25:29;15.50;;;8.00;;
3337;SDS011;1682;49.286;10.788;2024-03-06T13:28:17;17.07;;;9.53;;
3337;SDS011;1682;49.286;10.788;2024-03-06T13:31:06;17.60;;;8.23;;
3337;SDS011;1682;49.286;10.788;2024-03-06T13:33:54;15.30;;;8.00;;
3337;SDS011;1682;49.286;10.788;2024-03-06T13:36:42;14.20;;;9.00;;
3337;SDS011;1682;49.286;10.788;2024-03-06T13:39:30;12.93;;;7.23;;
3337;SDS011;1682;49.286;10.788;2024-03-06T13:42:17;17.03;;;8.00;;
3337;SDS011;1682;49.286;10.788;2024-03-06T13:45:05;11.53;;;7.70;;
3337;SDS011;1682;49.286;10.788;2024-03-06T13:47:57;16.57;;;9.17;;
3337;SDS011;1682;49.286;10.788;2024-03-06T13:50:44;12.27;;;7.50;;
3337;SDS011;1682;49.286;10.788;2024-03-06T13:53:33;13.10;;;7.17;;
3337;SDS011;1682;49.286;10.788;2024-03-06T13:56:21;12.93;;;7.80;;
3337;SDS011;1682;49.286;10.788;2024-03-06T13:59:09;10.80;;;6.67;;
3337;SDS011;1682;49.286;10.788;2024-03-06T14:01:56;11.70;;;7.77;;
3337;SDS011;1682;49.286;10.788;2024-03-06T14:04:44;16.60;;;8.27;;
3337;SDS011;1682;49.286;10.788;2024-03-06T14:07:33;14.03;;;8.77;;
3337;SDS011;1682;49.286;10.788;2024-03-06T14:10:21;13.03;;;7.90;;
3337;SDS011;1682;49.286;10.788;2024-03-06T14:13:09;13.40;;;7.77;;
3337;SDS011;1682;49.286;10.788;2024-03-06T14:15:57;12.17;;;7.23;;
3337;SDS011;1682;49.286;10.788;2024-03-06T14:18:45;13.87;;;7.80;;
3337;SDS011;1682;49.286;10.788;2024-03-06T14:21:33;17.83;;;8.20;;
3337;SDS011;1682;49.286;10.788;2024-03-06T14:24:21;10.77;;;7.23;;
3337;SDS011;1682;49.286;10.788;2024-03-06T14:27:10;14.20;;;7.63;;
3337;SDS011;1682;49.286;10.788;2024-03-06T14:29:57;13.90;;;7.37;;
3337;SDS011;1682;49.286;10.788;2024-03-06T14:32:45;16.90;;;8.87;;
3337;SDS011;1682;49.286;10.788;2024-03-06T14:35:32;17.30;;;8.27;;
3337;SDS011;1682;49.286;10.788;2024-03-06T14:38:20;11.10;;;8.47;;
3337;SDS011;1682;49.286;10.788;2024-03-06T14:41:07;23.13;;;9.83;;
3337;SDS011;1682;49.286;10.788;2024-03-06T14:43:56;11.77;;;7.50;;
3337;SDS011;1682;49.286;10.788;2024-03-06T14:46:44;16.70;;;8.13;;
3337;SDS011;1682;49.286;10.788;2024-03-06T14:49:31;12.83;;;7.57;;
3337;SDS011;1682;49.286;10.788;2024-03-06T14:52:20;15.90;;;9.17;;
3337;SDS011;1682;49.286;10.788;2024-03-06T14:55:07;13.30;;;8.13;;
3337;SDS011;1682;49.286;10.788;2024-03-06T14:57:55;17.30;;;8.90;;
3337;SDS011;1682;49.286;10.788;2024-03-06T15:00:44;15.73;;;9.90;;
3337;SDS011;1682;49.286;10.788;2024-03-06T15:03:31;14.40;;;8.90;;
3337;SDS011;1682;49.286;10.788;2024-03-06T15:06:19;14.30;;;7.70;;
3337;SDS011;1682;49.286;10.788;2024-03-06T15:09:06;13.10;;;9.07;;
3337;SDS011;1682;49.286;10.788;2024-03-06T15:11:57;16.83;;;8.27;;
3337;SDS011;1682;49.286;10.788;2024-03-06T15:14:46;11.30;;;7.13;;
3337;SDS011;1682;49.286;10.788;2024-03-06T15:17:35;14.87;;;9.23;;
3337;SDS011;1682;49.286;10.788;2024-03-06T15:20:24;14.97;;;8.67;;
3337;SDS011;1682;49.286;10.788;2024-03-06T15:23:12;15.50;;;9.57;;
3337;SDS011;1682;49.286;10.788;2024-03-06T15:26:01;18.97;;;10.70;;
3337;SDS011;1682;49.286;10.788;2024-03-06T15:28:49;15.63;;;8.60;;
3337;SDS011;1682;49.286;10.788;2024-03-06T15:31:38;18.60;;;8.60;;
3337;SDS011;1682;49.286;10.788;2024-03-06T15:34:26;12.27;;;7.13;;
3337;SDS011;1682;49.286;10.788;2024-03-06T15:37:14;15.10;;;9.40;;
3337;SDS011;1682;49.286;10.788;2024-03-06T15:40:02;11.23;;;8.60;;
3337;SDS011;1682;49.286;10.788;2024-03-06T15:42:51;12.40;;;8.03;;
3337;SDS011;1682;49.286;10.788;2024-03-06T15:45:39;16.87;;;7.63;;
3337;SDS011;1682;49.286;10.788;2024-03-06T15:48:26;22.37;;;10.10;;
3337;SDS011;1682;49.286;10.788;2024-03-06T15:51:17;13.77;;;8.93;;
3337;SDS011;1682;49.286;10.788;2024-03-06T15:54:04;13.40;;;8.10;;
3337;SDS011;1682;49.286;10.788;2024-03-06T15:56:53;15.37;;;9.07;;
3337;SDS011;1682;49.286;10.788;2024-03-06T15:59:42;14.47;;;8.67;;
3337;SDS011;1682;49.286;10.788;2024-03-06T16:02:30;15.63;;;9.47;;
3337;SDS011;1682;49.286;10.788;2024-03-06T16:05:18;20.90;;;10.40;;
3337;SDS011;1682;49.286;10.788;2024-03-06T16:08:06;12.30;;;8.80;;
3337;SDS011;1682;49.286;10.788;2024-03-06T16:10:54;14.30;;;8.63;;
3337;SDS011;1682;49.286;10.788;2024-03-06T16:13:42;22.30;;;9.87;;
3337;SDS011;1682;49.286;10.788;2024-03-06T16:16:30;20.93;;;11.03;;
3337;SDS011;1682;49.286;10.788;2024-03-06T16:19:17;22.53;;;10.27;;
3337;SDS011;1682;49.286;10.788;2024-03-06T16:22:05;18.20;;;9.33;;
3337;SDS011;1682;49.286;10.788;2024-03-06T16:24:53;15.93;;;9.10;;
3337;SDS011;1682;49.286;10.788;2024-03-06T16:27:41;20.50;;;10.10;;
3337;SDS011;1682;49.286;10.788;2024-03-06T16:30:28;14.63;;;9.23;;
3337;SDS011;1682;49.286;10.788;2024-03-06T16:33:16;14.17;;;9.67;;
3337;SDS011;1682;49.286;10.788;2024-03-06T16:36:04;17.60;;;8.33;;
3337;SDS011;1682;49.286;10.788;2024-03-06T16:38:52;12.20;;;8.20;;
3337;SDS011;1682;49.286;10.788;2024-03-06T16:41:41;14.27;;;9.07;;
3337;SDS011;1682;49.286;10.788;2024-03-06T16:44:28;15.03;;;9.77;;
3337;SDS011;1682;49.286;10.788;2024-03-06T16:47:16;15.70;;;9.60;;
3337;SDS011;1682;49.286;10.788;2024-03-06T16:50:04;17.13;;;9.43;;
3337;SDS011;1682;49.286;10.788;2024-03-06T16:52:52;8.77;;;7.37;;
3337;SDS011;1682;49.286;10.788;2024-03-06T16:55:39;16.00;;;8.40;;